createdAt,value
2024-01-14T00:00:00.805Z,7.20
2024-01-14T00:01:00.730Z,7.50
2024-01-14T00:02:00.696Z,7.30
2024-01-14T00:03:00.720Z,7.70
2024-01-14T00:04:00.770Z,7.20
2024-01-14T00:05:00.684Z,7.50
2024-01-14T00:06:00.836Z,7.00
2024-01-14T00:07:00.677Z,6.80
2024-01-14T00:08:00.636Z,6.70
2024-01-14T00:09:00.663Z,7.10
2024-01-14T00:10:00.626Z,7.70
2024-01-14T00:11:00.647Z,6.80
2024-01-14T00:12:00.654Z,7.80
2024-01-14T00:13:00.604Z,7.80
2024-01-14T00:14:00.580Z,7.40
2024-01-14T00:15:00.649Z,7.10
2024-01-14T00:16:00.558Z,7.60
2024-01-14T00:17:00.557Z,7.20
2024-01-14T00:18:00.704Z,7.40
2024-01-14T00:19:00.666Z,7.40
2024-01-14T00:20:00.913Z,7.70
2024-01-14T00:21:00.581Z,7.40
2024-01-14T00:22:00.573Z,7.30
2024-01-14T00:23:00.490Z,6.70
2024-01-14T00:24:00.511Z,7.20
2024-01-14T00:25:00.475Z,6.50
2024-01-14T00:26:00.460Z,6.90
2024-01-14T00:27:00.467Z,7.10
2024-01-14T00:28:00.444Z,7.40
2024-01-14T00:29:00.426Z,7.40
2024-01-14T00:30:00.533Z,7.20
2024-01-14T00:31:00.615Z,6.60
2024-01-14T00:32:00.394Z,6.90
2024-01-14T00:33:00.438Z,6.70
2024-01-14T00:34:00.520Z,7.30
2024-01-14T00:35:00.425Z,6.90
2024-01-14T00:36:00.327Z,7.50
2024-01-14T00:37:00.322Z,7.00
2024-01-14T00:38:00.322Z,6.40
2024-01-14T00:39:00.348Z,6.80
2024-01-14T00:40:00.358Z,6.80
2024-01-14T00:41:00.301Z,7.20
2024-01-14T00:42:00.307Z,7.30
2024-01-14T00:43:00.248Z,6.70
2024-01-14T00:44:00.228Z,6.80
2024-01-14T00:45:00.274Z,6.70
2024-01-14T00:46:00.207Z,7.30
2024-01-14T00:47:00.230Z,7.40
2024-01-14T00:48:00.385Z,6.80
2024-01-14T00:49:00.356Z,6.50
2024-01-14T00:50:00.247Z,6.70
2024-01-14T00:51:00.236Z,6.80
2024-01-14T00:52:00.196Z,6.90
2024-01-14T00:53:00.253Z,6.80
2024-01-14T00:54:00.177Z,7.30
2024-01-14T00:55:00.198Z,6.90
2024-01-14T00:56:00.124Z,7.20
2024-01-14T00:57:00.118Z,7.10
2024-01-14T00:58:00.094Z,8.20
2024-01-14T00:59:00.078Z,7.00
2024-01-14T01:00:00.074Z,7.20
2024-01-14T01:01:00.100Z,6.70
2024-01-14T01:02:00.057Z,6.80
2024-01-14T01:03:00.138Z,7.20
2024-01-14T01:04:00.167Z,6.90
2024-01-14T01:05:00.068Z,6.90
2024-01-14T01:06:00.050Z,6.80
2024-01-14T01:06:59.990Z,6.60
2024-01-14T01:07:59.982Z,6.30
2024-01-14T01:09:00.006Z,6.70
2024-01-14T01:09:59.962Z,6.30
2024-01-14T01:10:59.968Z,6.40
2024-01-14T01:11:59.984Z,6.10
2024-01-14T01:12:59.932Z,6.40
2024-01-14T01:13:59.917Z,6.40
2024-01-14T01:14:59.957Z,6.10
2024-01-14T01:15:59.917Z,6.50
2024-01-14T01:16:59.897Z,6.50
2024-01-14T01:17:59.980Z,5.80
2024-01-14T01:19:00.006Z,6.10
2024-01-14T01:20:00.032Z,6.40
2024-01-14T01:20:59.889Z,5.70
2024-01-14T01:21:59.838Z,5.90
2024-01-14T01:22:59.864Z,5.40
2024-01-14T01:23:59.908Z,5.00
2024-01-14T01:24:59.823Z,5.00
2024-01-14T01:25:59.798Z,4.80
2024-01-14T01:26:59.809Z,4.30
2024-01-14T01:27:59.785Z,4.80
2024-01-14T01:29:02.534Z,5.30
2024-01-14T01:29:59.897Z,4.50
2024-01-14T01:30:59.875Z,4.20
2024-01-14T01:32:07.000Z,4.10
2024-01-14T01:32:59.895Z,4.30
2024-01-14T01:33:59.851Z,3.90
2024-01-14T01:34:59.788Z,4.10
2024-01-14T01:35:59.720Z,3.90
2024-01-14T01:36:59.699Z,4.10
2024-01-14T01:37:59.698Z,3.30
2024-01-14T01:38:59.733Z,3.70
2024-01-14T01:39:59.656Z,3.50
2024-01-14T01:40:59.665Z,3.70
2024-01-14T01:41:59.661Z,3.70
2024-01-14T01:42:59.637Z,3.70
2024-01-14T01:43:59.617Z,3.70
2024-01-14T01:44:59.631Z,4.20
2024-01-14T01:45:59.587Z,4.00
2024-01-14T01:46:59.600Z,3.70
2024-01-14T01:47:59.636Z,3.70
2024-01-14T01:48:59.635Z,4.40
2024-01-14T01:49:59.572Z,3.80
2024-01-14T01:50:59.555Z,4.20
2024-01-14T01:51:59.538Z,4.10
2024-01-14T01:52:59.545Z,3.80
2024-01-14T01:53:59.544Z,4.00
2024-01-14T01:54:59.505Z,4.10
2024-01-14T01:55:59.484Z,3.60
2024-01-14T01:56:59.535Z,3.50
2024-01-14T01:57:59.475Z,3.90
2024-01-14T01:58:59.461Z,3.80
2024-01-14T01:59:59.536Z,4.40
2024-01-14T02:00:59.445Z,4.00
2024-01-14T02:01:59.429Z,4.10
2024-01-14T02:02:59.454Z,3.90
2024-01-14T02:03:59.435Z,4.00
2024-01-14T02:04:59.423Z,4.20
2024-01-14T02:05:59.385Z,3.90
2024-01-14T02:06:59.376Z,4.30
2024-01-14T02:07:59.362Z,4.00
2024-01-14T02:08:59.471Z,3.90
2024-01-14T02:09:59.351Z,4.20
2024-01-14T02:10:59.334Z,4.40
2024-01-14T02:11:59.318Z,4.60
2024-01-14T02:12:59.489Z,4.30
2024-01-14T02:13:59.283Z,4.40
2024-01-14T02:14:59.291Z,4.70
2024-01-14T02:15:59.264Z,4.50
2024-01-14T02:16:59.254Z,4.20
2024-01-14T02:17:59.297Z,4.50
2024-01-14T02:18:59.378Z,4.60
2024-01-14T02:19:59.206Z,4.80
2024-01-14T02:20:59.235Z,4.70
2024-01-14T02:21:59.198Z,4.30
2024-01-14T02:22:59.168Z,4.70
2024-01-14T02:23:59.178Z,4.70
2024-01-14T02:24:59.180Z,4.60
2024-01-14T02:25:59.143Z,4.60
2024-01-14T02:26:59.164Z,4.60
2024-01-14T02:27:59.106Z,4.40
2024-01-14T02:28:59.100Z,4.30
2024-01-14T02:29:59.116Z,3.90
2024-01-14T02:30:59.149Z,3.70
2024-01-14T02:31:59.084Z,3.90
2024-01-14T02:32:59.162Z,3.90
2024-01-14T02:33:59.093Z,3.60
2024-01-14T02:34:59.040Z,4.40
2024-01-14T02:35:59.040Z,3.80
2024-01-14T02:36:58.998Z,3.80
2024-01-14T02:37:58.996Z,4.00
2024-01-14T02:38:58.994Z,3.80
2024-01-14T02:39:58.988Z,3.50
2024-01-14T02:40:58.986Z,3.40
2024-01-14T02:41:59.000Z,3.60
2024-01-14T02:42:58.934Z,3.30
2024-01-14T02:43:58.936Z,3.10
2024-01-14T02:44:59.004Z,3.40
2024-01-14T02:45:58.921Z,3.30
2024-01-14T02:46:58.909Z,3.30
2024-01-14T02:47:59.034Z,3.10
2024-01-14T02:48:59.097Z,3.10
2024-01-14T02:49:58.938Z,3.30
2024-01-14T02:50:58.896Z,3.50
2024-01-14T02:51:58.866Z,3.20
2024-01-14T02:52:58.861Z,3.50
2024-01-14T02:53:58.872Z,3.00
2024-01-14T02:54:58.840Z,3.10
2024-01-14T02:55:58.823Z,3.20
2024-01-14T02:57:00.659Z,2.90
2024-01-14T02:57:58.818Z,3.00
2024-01-14T02:58:58.788Z,3.80
2024-01-14T02:59:58.826Z,2.90
2024-01-14T03:00:58.815Z,2.70
2024-01-14T03:01:58.773Z,3.20
2024-01-14T03:02:58.814Z,2.60
2024-01-14T03:03:58.833Z,3.00
2024-01-14T03:04:58.750Z,3.10
2024-01-14T03:05:58.848Z,3.00
2024-01-14T03:06:58.850Z,2.70
2024-01-14T03:07:58.706Z,2.90
2024-01-14T03:08:58.720Z,2.60
2024-01-14T03:09:58.683Z,2.90
2024-01-14T03:10:58.673Z,2.60
2024-01-14T03:11:58.730Z,3.00
2024-01-14T03:12:58.647Z,3.00
2024-01-14T03:13:58.644Z,2.90
2024-01-14T03:14:58.674Z,2.70
2024-01-14T03:15:58.633Z,2.50
2024-01-14T03:16:58.617Z,2.80
2024-01-14T03:17:58.693Z,2.50
2024-01-14T03:18:58.697Z,2.50
2024-01-14T03:19:58.662Z,2.50
2024-01-14T03:20:58.613Z,2.40
2024-01-14T03:21:58.579Z,2.70
2024-01-14T03:22:58.550Z,2.70
2024-01-14T03:23:58.602Z,2.40
2024-01-14T03:24:58.523Z,2.20
2024-01-14T03:25:58.542Z,2.70
2024-01-14T03:26:58.511Z,2.60
2024-01-14T03:27:58.500Z,2.30
2024-01-14T03:28:58.501Z,3.20
2024-01-14T03:29:58.520Z,2.40
2024-01-14T03:30:58.652Z,2.80
2024-01-14T03:31:58.463Z,2.40
2024-01-14T03:32:58.513Z,2.50
2024-01-14T03:33:58.562Z,2.70
2024-01-14T03:34:58.424Z,2.80
2024-01-14T03:35:58.418Z,2.50
2024-01-14T03:36:58.403Z,2.90
2024-01-14T03:37:58.381Z,2.50
2024-01-14T03:38:58.413Z,2.60
2024-01-14T03:39:58.372Z,2.60
2024-01-14T03:40:58.345Z,2.10
2024-01-14T03:41:58.367Z,2.60
2024-01-14T03:42:58.338Z,2.30
2024-01-14T03:43:58.336Z,1.90
2024-01-14T03:44:58.329Z,2.40
2024-01-14T03:45:58.298Z,2.30
2024-01-14T03:46:58.302Z,2.10
2024-01-14T03:47:58.457Z,2.40
2024-01-14T03:48:58.418Z,2.30
2024-01-14T03:49:58.255Z,2.30
2024-01-14T03:50:58.272Z,2.30
2024-01-14T03:51:58.231Z,2.30
2024-01-14T03:52:58.221Z,2.70
2024-01-14T03:53:58.236Z,2.10
2024-01-14T03:54:58.199Z,2.30
2024-01-14T03:55:58.187Z,2.10
2024-01-14T03:56:58.230Z,2.40
2024-01-14T03:57:58.170Z,1.90
2024-01-14T03:58:58.153Z,2.30
2024-01-14T03:59:58.144Z,2.30
2024-01-14T04:00:58.168Z,2.50
2024-01-14T04:01:58.109Z,2.20
2024-01-14T04:02:58.221Z,2.40
2024-01-14T04:03:58.330Z,1.90
2024-01-14T04:04:58.078Z,2.30
2024-01-14T04:05:58.103Z,1.90
2024-01-14T04:06:58.103Z,1.90
2024-01-14T04:07:58.054Z,2.30
2024-01-14T04:08:58.079Z,2.10
2024-01-14T04:09:58.017Z,2.10
2024-01-14T04:10:58.023Z,2.10
2024-01-14T04:11:58.062Z,2.20
2024-01-14T04:12:57.982Z,2.40
2024-01-14T04:13:57.984Z,1.90
2024-01-14T04:14:58.050Z,1.80
2024-01-14T04:16:00.685Z,2.30
2024-01-14T04:16:57.946Z,1.90
2024-01-14T04:17:58.028Z,2.10
2024-01-14T04:18:58.031Z,2.40
2024-01-14T04:19:57.993Z,2.00
2024-01-14T04:20:57.951Z,2.00
2024-01-14T04:21:57.890Z,2.10
2024-01-14T04:22:57.887Z,2.20
2024-01-14T04:23:57.921Z,1.90
2024-01-14T04:24:57.858Z,1.70
2024-01-14T04:25:57.874Z,2.10
2024-01-14T04:26:57.860Z,1.90
2024-01-14T04:27:57.825Z,2.00
2024-01-14T04:28:57.811Z,2.30
2024-01-14T04:29:57.864Z,2.10
2024-01-14T04:30:57.856Z,2.10
2024-01-14T04:31:57.816Z,2.10
2024-01-14T04:32:57.929Z,2.40
2024-01-14T04:33:57.959Z,2.00
2024-01-14T04:34:57.862Z,2.30
2024-01-14T04:35:57.789Z,2.10
2024-01-14T04:36:57.727Z,2.10
2024-01-14T04:37:59.982Z,2.00
2024-01-14T04:38:57.704Z,2.10
2024-01-14T04:39:57.725Z,2.10
2024-01-14T04:40:57.674Z,2.30
2024-01-14T04:41:57.693Z,2.40
2024-01-14T04:42:57.660Z,2.60
2024-01-14T04:43:57.646Z,2.10
2024-01-14T04:44:57.645Z,2.40
2024-01-14T04:45:57.622Z,2.30
2024-01-14T04:46:57.617Z,2.60
2024-01-14T04:47:57.738Z,2.40
2024-01-14T04:48:57.747Z,2.40
2024-01-14T04:49:57.639Z,2.90
2024-01-14T04:50:57.579Z,2.80
2024-01-14T04:51:57.563Z,2.50
2024-01-14T04:52:57.544Z,2.60
2024-01-14T04:53:57.576Z,2.30
2024-01-14T04:54:57.523Z,2.60
2024-01-14T04:55:57.524Z,2.30
2024-01-14T04:56:57.514Z,2.20
2024-01-14T04:57:57.498Z,2.20
2024-01-14T04:58:57.489Z,2.20
2024-01-14T04:59:57.471Z,2.50
2024-01-14T05:00:57.526Z,2.30
2024-01-14T05:01:57.460Z,2.60
2024-01-14T05:02:57.477Z,2.60
2024-01-14T05:03:57.553Z,2.30
2024-01-14T05:04:57.431Z,2.30
2024-01-14T05:05:57.538Z,2.00
2024-01-14T05:06:57.489Z,2.40
2024-01-14T05:07:57.415Z,2.40
2024-01-14T05:08:57.391Z,2.10
2024-01-14T05:09:57.371Z,2.30
2024-01-14T05:10:57.355Z,2.30
2024-01-14T05:11:57.500Z,2.20
2024-01-14T05:12:57.351Z,2.30
2024-01-14T05:13:57.376Z,2.40
2024-01-14T05:14:57.352Z,2.40
2024-01-14T05:15:57.313Z,2.50
2024-01-14T05:16:57.302Z,2.50
2024-01-14T05:17:57.456Z,2.20
2024-01-14T05:18:57.417Z,2.30
2024-01-14T05:19:57.262Z,2.20
2024-01-14T05:20:57.285Z,2.20
2024-01-14T05:21:57.258Z,2.30
2024-01-14T05:22:57.244Z,2.70
2024-01-14T05:23:57.251Z,2.10
2024-01-14T05:24:57.231Z,2.50
2024-01-14T05:25:57.227Z,2.70
2024-01-14T05:26:57.260Z,2.70
2024-01-14T05:27:57.193Z,2.30
2024-01-14T05:28:57.175Z,2.50
2024-01-14T05:29:57.206Z,2.20
2024-01-14T05:30:57.246Z,2.20
2024-01-14T05:31:57.142Z,2.40
2024-01-14T05:32:57.184Z,2.40
2024-01-14T05:33:57.174Z,2.30
2024-01-14T05:34:57.126Z,2.10
2024-01-14T05:35:57.118Z,2.40
2024-01-14T05:36:57.102Z,2.60
2024-01-14T05:37:57.100Z,2.60
2024-01-14T05:38:57.118Z,2.20
2024-01-14T05:39:57.071Z,2.30
2024-01-14T05:40:57.063Z,2.30
2024-01-14T05:41:57.068Z,2.40
2024-01-14T05:42:57.023Z,2.30
2024-01-14T05:43:57.004Z,2.20
2024-01-14T05:44:57.087Z,2.10
2024-01-14T05:45:56.995Z,2.80
2024-01-14T05:46:56.976Z,2.80
2024-01-14T05:47:57.105Z,2.60
2024-01-14T05:48:57.082Z,2.60
2024-01-14T05:49:57.024Z,2.10
2024-01-14T05:50:56.932Z,2.30
2024-01-14T05:51:56.920Z,2.70
2024-01-14T05:52:56.911Z,2.40
2024-01-14T05:53:56.927Z,2.30
2024-01-14T05:54:56.887Z,2.80
2024-01-14T05:55:56.886Z,2.40
2024-01-14T05:56:56.908Z,2.40
2024-01-14T05:57:56.861Z,2.50
2024-01-14T05:58:56.862Z,2.40
2024-01-14T05:59:56.882Z,2.50
2024-01-14T06:00:56.880Z,2.50
2024-01-14T06:01:56.876Z,2.30
2024-01-14T06:02:56.844Z,2.50
2024-01-14T06:03:56.809Z,2.20
2024-01-14T06:04:56.832Z,2.60
2024-01-14T06:05:57.161Z,2.50
2024-01-14T06:06:56.867Z,2.30
2024-01-14T06:07:56.760Z,2.40
2024-01-14T06:08:56.758Z,2.40
2024-01-14T06:09:56.726Z,2.40
2024-01-14T06:10:56.714Z,3.10
2024-01-14T06:11:56.746Z,2.70
2024-01-14T06:12:56.792Z,2.80
2024-01-14T06:13:56.778Z,2.30
2024-01-14T06:14:56.684Z,2.80
2024-01-14T06:15:56.663Z,2.60
2024-01-14T06:16:56.655Z,2.60
2024-01-14T06:17:56.847Z,2.70
2024-01-14T06:18:56.858Z,2.40
2024-01-14T06:19:56.788Z,2.60
2024-01-14T06:20:56.606Z,2.50
2024-01-14T06:21:56.608Z,2.80
2024-01-14T06:22:56.592Z,2.60
2024-01-14T06:23:56.605Z,2.60
2024-01-14T06:24:56.553Z,2.30
2024-01-14T06:25:56.559Z,2.70
2024-01-14T06:26:56.568Z,3.00
2024-01-14T06:27:56.535Z,2.70
2024-01-14T06:28:56.514Z,2.40
2024-01-14T06:29:56.532Z,3.00
2024-01-14T06:30:56.631Z,2.80
2024-01-14T06:31:56.556Z,2.90
2024-01-14T06:32:56.609Z,2.50
2024-01-14T06:33:56.611Z,2.60
2024-01-14T06:34:56.581Z,2.90
2024-01-14T06:35:56.492Z,2.50
2024-01-14T06:36:56.464Z,2.70
2024-01-14T06:37:56.445Z,2.80
2024-01-14T06:38:56.451Z,2.70
2024-01-14T06:39:56.399Z,2.80
2024-01-14T06:41:03.308Z,3.00
2024-01-14T06:41:56.453Z,2.40
2024-01-14T06:42:56.370Z,2.70
2024-01-14T06:43:56.357Z,2.50
2024-01-14T06:44:56.370Z,2.40
2024-01-14T06:45:56.339Z,2.30
2024-01-14T06:46:56.324Z,2.30
2024-01-14T06:47:56.439Z,2.30
2024-01-14T06:48:56.478Z,2.50
2024-01-14T06:50:03.833Z,2.50
2024-01-14T06:50:56.360Z,2.50
2024-01-14T06:51:56.269Z,2.70
2024-01-14T06:52:56.259Z,2.20
2024-01-14T06:53:56.289Z,2.40
2024-01-14T06:54:56.256Z,2.30
2024-01-14T06:55:56.231Z,2.30
2024-01-14T06:56:56.245Z,2.00
2024-01-14T06:57:56.209Z,2.40
2024-01-14T06:58:56.203Z,2.30
2024-01-14T06:59:56.251Z,2.20
2024-01-14T07:00:56.289Z,2.60
2024-01-14T07:01:56.242Z,2.60
2024-01-14T07:02:56.233Z,2.50
2024-01-14T07:03:56.313Z,2.30
2024-01-14T07:04:56.181Z,2.20
2024-01-14T07:05:56.303Z,2.30
2024-01-14T07:06:56.160Z,2.70
2024-01-14T07:07:56.137Z,2.40
2024-01-14T07:08:56.143Z,2.50
2024-01-14T07:09:56.072Z,2.50
2024-01-14T07:10:56.086Z,2.20
2024-01-14T07:11:56.092Z,2.50
2024-01-14T07:12:56.063Z,2.10
2024-01-14T07:13:56.032Z,2.50
2024-01-14T07:14:56.077Z,2.40
2024-01-14T07:15:56.159Z,2.40
2024-01-14T07:16:56.024Z,2.10
2024-01-14T07:17:59.760Z,2.80
2024-01-14T07:18:56.120Z,2.50
2024-01-14T07:19:56.137Z,2.60
2024-01-14T07:20:55.989Z,2.40
2024-01-14T07:21:55.945Z,2.60
2024-01-14T07:23:38.684Z,2.50
2024-01-14T07:23:55.973Z,2.40
2024-01-14T07:24:55.934Z,2.40
2024-01-14T07:25:55.906Z,2.20
2024-01-14T07:26:55.922Z,2.50
2024-01-14T07:27:55.932Z,2.40
2024-01-14T07:28:56.259Z,2.00
2024-01-14T07:29:55.878Z,2.40
2024-01-14T07:30:56.138Z,2.10
2024-01-14T07:31:55.851Z,2.50
2024-01-14T07:32:55.915Z,2.10
2024-01-14T07:33:55.990Z,2.10
2024-01-14T07:34:55.814Z,2.30
2024-01-14T07:35:55.977Z,2.40
2024-01-14T07:36:55.804Z,2.10
2024-01-14T07:37:55.794Z,1.80
2024-01-14T07:38:55.908Z,2.00
2024-01-14T07:39:55.757Z,2.00
2024-01-14T07:40:55.764Z,2.40
2024-01-14T07:41:55.802Z,2.30
2024-01-14T07:42:55.729Z,2.50
2024-01-14T07:43:55.724Z,2.30
2024-01-14T07:44:55.746Z,2.50
2024-01-14T07:45:55.715Z,2.30
2024-01-14T07:46:55.683Z,2.10
2024-01-14T07:47:55.791Z,2.10
2024-01-14T07:48:55.741Z,2.50
2024-01-14T07:49:55.678Z,2.40
2024-01-14T07:50:55.665Z,2.00
2024-01-14T07:51:55.624Z,2.40
2024-01-14T07:52:55.623Z,2.30
2024-01-14T07:53:55.659Z,2.20
2024-01-14T07:54:55.615Z,2.40
2024-01-14T07:55:55.586Z,2.00
2024-01-14T07:56:55.622Z,2.00
2024-01-14T07:57:55.563Z,2.00
2024-01-14T07:58:55.560Z,1.70
2024-01-14T07:59:55.598Z,2.20
2024-01-14T08:01:01.758Z,1.90
2024-01-14T08:01:55.554Z,1.60
2024-01-14T08:02:55.565Z,2.20
2024-01-14T08:03:55.640Z,2.10
2024-01-14T08:04:55.523Z,2.00
2024-01-14T08:05:55.552Z,2.10
2024-01-14T08:06:55.469Z,2.00
2024-01-14T08:07:55.472Z,1.90
2024-01-14T08:08:55.489Z,2.20
2024-01-14T08:09:55.441Z,1.80
2024-01-14T08:10:55.436Z,2.20
2024-01-14T08:11:55.433Z,2.40
2024-01-14T08:12:55.403Z,2.00
2024-01-14T08:13:55.408Z,2.00
2024-01-14T08:14:55.398Z,2.30
2024-01-14T08:16:01.671Z,2.10
2024-01-14T08:16:55.369Z,2.10
2024-01-14T08:17:55.433Z,2.30
2024-01-14T08:18:55.444Z,2.20
2024-01-14T08:19:55.424Z,2.40
2024-01-14T08:20:55.422Z,2.40
2024-01-14T08:21:55.301Z,2.00
2024-01-14T08:22:55.309Z,2.30
2024-01-14T08:23:55.337Z,2.30
2024-01-14T08:24:55.286Z,2.20
2024-01-14T08:25:55.297Z,1.80
2024-01-14T08:26:55.286Z,2.00
2024-01-14T08:27:55.245Z,2.20
2024-01-14T08:28:55.239Z,2.00
2024-01-14T08:29:55.243Z,2.00
2024-01-14T08:30:55.278Z,2.10
2024-01-14T08:31:55.348Z,2.00
2024-01-14T08:32:55.312Z,1.90
2024-01-14T08:33:55.271Z,2.10
2024-01-14T08:34:55.333Z,2.00
2024-01-14T08:35:55.203Z,2.00
2024-01-14T08:36:55.173Z,2.00
2024-01-14T08:37:55.184Z,2.10
2024-01-14T08:38:55.162Z,1.90
2024-01-14T08:39:55.112Z,1.80
2024-01-14T08:40:55.132Z,2.00
2024-01-14T08:41:55.313Z,1.90
2024-01-14T08:42:55.095Z,1.60
2024-01-14T08:43:55.114Z,2.00
2024-01-14T08:44:55.177Z,1.90
2024-01-14T08:45:55.142Z,1.90
2024-01-14T08:46:55.084Z,1.60
2024-01-14T08:47:55.249Z,2.20
2024-01-14T08:48:55.117Z,1.80
2024-01-14T08:49:55.062Z,1.70
2024-01-14T08:50:55.190Z,1.80
2024-01-14T08:51:55.003Z,2.10
2024-01-14T08:52:54.999Z,1.60
2024-01-14T08:53:54.994Z,1.30
2024-01-14T08:54:55.052Z,1.90
2024-01-14T08:55:54.951Z,1.50
2024-01-14T08:56:54.981Z,1.70
2024-01-14T08:57:54.938Z,1.70
2024-01-14T08:58:54.917Z,2.00
2024-01-14T08:59:54.929Z,1.90
2024-01-14T09:00:54.968Z,2.00
2024-01-14T09:01:54.922Z,1.80
2024-01-14T09:02:54.913Z,1.60
2024-01-14T09:03:55.098Z,1.80
2024-01-14T09:04:54.887Z,1.70
2024-01-14T09:05:54.936Z,1.80
2024-01-14T09:06:54.966Z,2.20
2024-01-14T09:07:54.823Z,1.70
2024-01-14T09:08:54.852Z,1.60
2024-01-14T09:09:54.839Z,1.80
2024-01-14T09:10:54.834Z,2.00
2024-01-14T09:11:54.815Z,1.60
2024-01-14T09:12:54.773Z,1.60
2024-01-14T09:13:54.779Z,1.80
2024-01-14T09:14:54.805Z,1.80
2024-01-14T09:15:54.758Z,2.00
2024-01-14T09:16:54.738Z,1.70
2024-01-14T09:17:54.892Z,1.50
2024-01-14T09:18:54.872Z,1.60
2024-01-14T09:19:54.852Z,1.80
2024-01-14T09:20:54.744Z,1.70
2024-01-14T09:21:54.711Z,1.70
2024-01-14T09:22:54.675Z,1.80
2024-01-14T09:23:54.742Z,2.10
2024-01-14T09:24:54.638Z,1.60
2024-01-14T09:25:54.639Z,1.70
2024-01-14T09:26:54.646Z,2.20
2024-01-14T09:27:54.601Z,1.90
2024-01-14T09:28:54.607Z,1.70
2024-01-14T09:29:54.597Z,2.00
2024-01-14T09:31:02.430Z,1.80
2024-01-14T09:31:54.638Z,1.70
2024-01-14T09:32:54.632Z,1.70
2024-01-14T09:33:54.613Z,1.60
2024-01-14T09:34:54.569Z,1.70
2024-01-14T09:35:54.553Z,1.90
2024-01-14T09:36:54.518Z,1.50
2024-01-14T09:37:54.513Z,1.50
2024-01-14T09:38:54.533Z,1.60
2024-01-14T09:39:54.504Z,1.60
2024-01-14T09:40:54.489Z,1.60
2024-01-14T09:41:54.478Z,1.70
2024-01-14T09:42:54.456Z,1.80
2024-01-14T09:43:54.476Z,2.00
2024-01-14T09:44:54.462Z,1.60
2024-01-14T09:45:54.470Z,1.70
2024-01-14T09:46:54.439Z,1.90
2024-01-14T09:47:54.478Z,1.70
2024-01-14T09:48:54.568Z,1.70
2024-01-14T09:49:54.544Z,1.80
2024-01-14T09:50:54.370Z,1.60
2024-01-14T09:51:54.347Z,1.80
2024-01-14T09:52:54.343Z,1.60
2024-01-14T09:53:54.392Z,1.90
2024-01-14T09:54:54.498Z,2.00
2024-01-14T09:55:54.321Z,1.50
2024-01-14T09:56:54.375Z,1.80
2024-01-14T09:57:54.283Z,1.70
2024-01-14T09:58:54.273Z,2.20
2024-01-14T09:59:54.329Z,1.90
2024-01-14T10:00:54.347Z,1.90
2024-01-14T10:01:54.248Z,2.00
2024-01-14T10:02:54.260Z,1.90
2024-01-14T10:03:54.279Z,2.20
2024-01-14T10:04:54.240Z,1.60
2024-01-14T10:05:54.349Z,2.30
2024-01-14T10:06:54.280Z,2.00
2024-01-14T10:07:54.238Z,2.10
2024-01-14T10:09:11.430Z,2.00
2024-01-14T10:09:54.179Z,1.90
2024-01-14T10:10:57.793Z,2.10
2024-01-14T10:12:04.676Z,2.30
2024-01-14T10:12:54.902Z,1.80
2024-01-14T10:13:54.153Z,2.00
2024-01-14T10:14:54.704Z,2.00
2024-01-14T10:15:58.795Z,1.90
2024-01-14T10:16:55.649Z,1.80
2024-01-14T10:17:54.151Z,1.80
2024-01-14T10:18:54.106Z,1.90
2024-01-14T10:19:54.105Z,1.90
2024-01-14T10:20:54.077Z,2.20
2024-01-14T10:22:13.409Z,1.90
2024-01-14T10:22:54.023Z,1.90
2024-01-14T10:23:54.045Z,1.80
2024-01-14T10:24:54.111Z,2.10
2024-01-14T10:25:54.141Z,1.90
2024-01-14T10:26:54.024Z,1.90
2024-01-14T10:27:54.083Z,2.20
2024-01-14T10:28:53.963Z,2.00
2024-01-14T10:29:54.006Z,1.90
2024-01-14T10:30:54.015Z,1.80
2024-01-14T10:31:53.989Z,1.80
2024-01-14T10:33:18.412Z,2.10
2024-01-14T10:33:54.046Z,2.30
2024-01-14T10:35:05.597Z,1.80
2024-01-14T10:35:54.075Z,2.50
2024-01-14T10:36:53.956Z,1.90
2024-01-14T10:37:53.869Z,2.10
2024-01-14T10:38:53.943Z,1.80
2024-01-14T10:39:53.845Z,1.70
2024-01-14T10:40:53.842Z,2.20
2024-01-14T10:41:53.826Z,2.20
2024-01-14T10:42:53.958Z,2.00
2024-01-14T10:43:53.872Z,1.80
2024-01-14T10:44:53.857Z,2.10
2024-01-14T10:45:54.107Z,2.20
2024-01-14T10:46:53.769Z,1.90
2024-01-14T10:47:53.796Z,2.30
2024-01-14T10:49:02.272Z,1.90
2024-01-14T10:49:53.750Z,2.40
2024-01-14T10:50:53.772Z,1.60
2024-01-14T10:51:53.719Z,1.80
2024-01-14T10:52:53.822Z,2.10
2024-01-14T10:53:53.726Z,2.00
2024-01-14T10:54:53.672Z,2.10
2024-01-14T10:55:53.699Z,1.90
2024-01-14T10:56:53.663Z,2.40
2024-01-14T10:57:53.661Z,1.90
2024-01-14T10:58:53.638Z,1.80
2024-01-14T10:59:53.629Z,2.10
2024-01-14T11:00:53.844Z,2.20
2024-01-14T11:01:53.622Z,1.90
2024-01-14T11:02:53.613Z,2.00
2024-01-14T11:03:56.475Z,1.70
2024-01-14T11:04:53.631Z,2.00
2024-01-14T11:05:53.568Z,1.90
2024-01-14T11:06:53.595Z,1.80
2024-01-14T11:07:53.543Z,1.70
2024-01-14T11:08:53.536Z,1.90
2024-01-14T11:09:53.540Z,2.10
2024-01-14T11:10:53.546Z,1.90
2024-01-14T11:11:53.514Z,2.00
2024-01-14T11:12:53.556Z,1.70
2024-01-14T11:13:53.494Z,2.00
2024-01-14T11:14:53.482Z,2.00
2024-01-14T11:15:53.666Z,2.20
2024-01-14T11:16:53.455Z,2.10
2024-01-14T11:17:53.460Z,2.20
2024-01-14T11:18:53.613Z,2.60
2024-01-14T11:19:53.617Z,2.30
2024-01-14T11:21:05.346Z,2.40
2024-01-14T11:22:06.211Z,2.30
2024-01-14T11:22:55.819Z,2.20
2024-01-14T11:23:53.422Z,2.40
2024-01-14T11:24:53.387Z,2.10
2024-01-14T11:25:53.362Z,2.20
2024-01-14T11:26:53.360Z,2.10
2024-01-14T11:27:55.207Z,2.30
2024-01-14T11:28:53.326Z,2.40
2024-01-14T11:29:53.324Z,2.50
2024-01-14T11:30:53.495Z,2.00
2024-01-14T11:31:53.333Z,2.10
2024-01-14T11:32:53.340Z,2.10
2024-01-14T11:33:53.432Z,2.10
2024-01-14T11:34:53.549Z,2.20
2024-01-14T11:35:53.308Z,2.20
2024-01-14T11:36:53.250Z,1.90
2024-01-14T11:37:53.225Z,2.20
2024-01-14T11:38:53.218Z,2.00
2024-01-14T11:39:53.214Z,2.00
2024-01-14T11:40:53.205Z,2.10
2024-01-14T11:41:53.196Z,1.90
2024-01-14T11:42:53.203Z,2.00
2024-01-14T11:43:53.172Z,2.00
2024-01-14T11:44:53.176Z,2.10
2024-01-14T11:45:53.196Z,2.10
2024-01-14T11:46:54.406Z,2.10
2024-01-14T11:47:53.142Z,2.30
2024-01-14T11:48:53.184Z,2.20
2024-01-14T11:49:53.217Z,2.00
2024-01-14T11:50:53.134Z,2.00
2024-01-14T11:51:53.081Z,1.80
2024-01-14T11:52:53.099Z,2.10
2024-01-14T11:53:55.573Z,2.00
2024-01-14T11:54:53.054Z,1.80
2024-01-14T11:55:53.050Z,2.00
2024-01-14T11:56:53.039Z,2.10
2024-01-14T11:57:53.017Z,2.00
2024-01-14T11:58:53.013Z,1.80
2024-01-14T11:59:55.686Z,1.90
2024-01-14T12:00:53.213Z,2.00
2024-01-14T12:01:52.977Z,1.80
2024-01-14T12:02:52.972Z,1.90
2024-01-14T12:03:53.019Z,2.10
2024-01-14T12:04:57.969Z,2.00
2024-01-14T12:05:52.974Z,2.00
2024-01-14T12:06:52.975Z,2.40
2024-01-14T12:07:52.919Z,2.00
2024-01-14T12:08:52.911Z,2.30
2024-01-14T12:09:52.891Z,2.40
2024-01-14T12:10:52.926Z,2.10
2024-01-14T12:11:52.883Z,2.00
2024-01-14T12:12:52.892Z,2.30
2024-01-14T12:13:52.850Z,2.20
2024-01-14T12:14:52.851Z,2.40
2024-01-14T12:15:59.185Z,2.00
2024-01-14T12:16:52.832Z,1.80
2024-01-14T12:17:53.445Z,2.20
2024-01-14T12:18:52.879Z,2.40
2024-01-14T12:19:52.912Z,2.00
2024-01-14T12:20:52.804Z,2.10
2024-01-14T12:21:52.785Z,1.80
2024-01-14T12:22:52.761Z,2.20
2024-01-14T12:23:52.760Z,2.10
2024-01-14T12:24:52.741Z,1.70
2024-01-14T12:25:52.730Z,2.20
2024-01-14T12:26:54.357Z,2.00
2024-01-14T12:27:52.701Z,2.20
2024-01-14T12:28:52.700Z,1.90
2024-01-14T12:29:52.682Z,1.80
2024-01-14T12:30:52.761Z,1.90
2024-01-14T12:31:56.780Z,2.10
2024-01-14T12:32:52.684Z,2.10
2024-01-14T12:33:52.762Z,2.10
2024-01-14T12:34:52.742Z,2.10
2024-01-14T12:35:52.639Z,1.90
2024-01-14T12:36:54.502Z,2.00
2024-01-14T12:37:52.591Z,2.30
2024-01-14T12:38:52.587Z,2.00
2024-01-14T12:39:52.590Z,2.00
2024-01-14T12:40:52.570Z,1.80
2024-01-14T12:41:54.950Z,2.00
2024-01-14T12:42:52.633Z,1.80
2024-01-14T12:43:52.534Z,2.00
2024-01-14T12:44:54.020Z,2.20
2024-01-14T12:45:52.551Z,2.20
2024-01-14T12:46:55.993Z,2.10
2024-01-14T12:47:52.506Z,2.00
2024-01-14T12:49:01.635Z,2.20
2024-01-14T12:49:52.539Z,1.90
2024-01-14T12:50:52.464Z,2.20
2024-01-14T12:51:52.448Z,1.90
2024-01-14T12:52:52.438Z,2.00
2024-01-14T12:53:52.424Z,1.90
2024-01-14T12:54:52.497Z,2.30
2024-01-14T12:55:52.407Z,2.10
2024-01-14T12:56:53.254Z,2.00
2024-01-14T12:57:52.443Z,1.90
2024-01-14T12:58:52.376Z,1.90
2024-01-14T12:59:52.374Z,2.10
2024-01-14T13:00:52.400Z,2.00
2024-01-14T13:01:52.424Z,2.00
2024-01-14T13:02:52.362Z,2.20
2024-01-14T13:03:52.374Z,1.80
2024-01-14T13:04:52.388Z,2.10
2024-01-14T13:05:52.312Z,1.90
2024-01-14T13:06:52.773Z,1.80
2024-01-14T13:07:52.322Z,1.80
2024-01-14T13:08:52.269Z,1.80
2024-01-14T13:09:52.258Z,1.90
2024-01-14T13:10:52.245Z,2.00
2024-01-14T13:11:52.232Z,2.10
2024-01-14T13:12:52.399Z,2.30
2024-01-14T13:13:52.212Z,1.90
2024-01-14T13:14:52.202Z,2.40
2024-01-14T13:15:52.218Z,2.00
2024-01-14T13:16:54.746Z,2.10
2024-01-14T13:17:52.228Z,2.00